ASA859 PHNL-NCRG
Flight info
| Callsign | ASA859 |
|---|---|
| Flight time | 5h 49m |
| Altitude | 31000 |
| Route | OPIHI3 CARRP/N0458F330 DCT DATBE DCT 12N160W 02N161W 05S161W/N0456F350 10S161W DCT ASORO DCT PULOS OSPID1A |
| Aircraft | A21N/M-SDE2E3FGHIRWXY/LB1 |
Departure
| Time | 2026-04-23 15:41 |
|---|---|
| Airport | Daniel K. Inouye International Airport (PHNL) |
Arrival
| Time | 2026-04-23 21:31 |
|---|---|
| Airport | Rarotonga International Airport (NCRG) |
| Time | Latitude | Longitude | Altitude | Speed | Heading |
|---|---|---|---|---|---|
| 2026-04-23 15:22 | 21.33698 | -157.92417 | 29 ft | 0 kts | 210° |
| 2026-04-23 15:31 | 21.33700 | -157.92416 | 29 ft | 2 kts | 210° |
| 2026-04-23 15:31 | 21.33722 | -157.92402 | 29 ft | 4 kts | 210° |
| 2026-04-23 15:32 | 21.33742 | -157.92387 | 29 ft | 4 kts | 243° |
| 2026-04-23 15:32 | 21.33743 | -157.92365 | 29 ft | 4 kts | 279° |
| 2026-04-23 15:32 | 21.33741 | -157.92353 | 29 ft | 3 kts | 279° |
| 2026-04-23 15:34 | 21.33750 | -157.92396 | 29 ft | 12 kts | 284° |
| 2026-04-23 15:34 | 21.33760 | -157.92496 | 29 ft | 13 kts | 268° |
| 2026-04-23 15:35 | 21.33711 | -157.92583 | 29 ft | 16 kts | 202° |
| 2026-04-23 15:35 | 21.33593 | -157.92593 | 29 ft | 19 kts | 161° |
| 2026-04-23 15:35 | 21.33480 | -157.92522 | 29 ft | 19 kts | 149° |
| 2026-04-23 15:35 | 21.33377 | -157.92515 | 29 ft | 15 kts | 187° |
| 2026-04-23 15:36 | 21.33277 | -157.92561 | 29 ft | 20 kts | 211° |
| 2026-04-23 15:36 | 21.33156 | -157.92607 | 29 ft | 18 kts | 226° |
| 2026-04-23 15:36 | 21.33079 | -157.92710 | 29 ft | 18 kts | 226° |
| 2026-04-23 15:36 | 21.32991 | -157.92804 | 29 ft | 18 kts | 224° |
| 2026-04-23 15:37 | 21.32898 | -157.92889 | 30 ft | 17 kts | 193° |
| 2026-04-23 15:37 | 21.32778 | -157.92898 | 30 ft | 17 kts | 188° |
| 2026-04-23 15:37 | 21.32744 | -157.92942 | 30 ft | 12 kts | 264° |
| 2026-04-23 15:37 | 21.32743 | -157.93103 | 30 ft | 21 kts | 269° |
| 2026-04-23 15:38 | 21.32740 | -157.93259 | 30 ft | 21 kts | 270° |
| 2026-04-23 15:38 | 21.32739 | -157.93415 | 30 ft | 21 kts | 270° |
| 2026-04-23 15:38 | 21.32740 | -157.93571 | 30 ft | 21 kts | 271° |
| 2026-04-23 15:38 | 21.32739 | -157.93729 | 30 ft | 22 kts | 269° |
| 2026-04-23 15:39 | 21.32743 | -157.93891 | 30 ft | 22 kts | 272° |
| 2026-04-23 15:39 | 21.32743 | -157.94062 | 30 ft | 23 kts | 268° |
| 2026-04-23 15:39 | 21.32739 | -157.94224 | 30 ft | 17 kts | 270° |
| 2026-04-23 15:39 | 21.32693 | -157.94323 | 30 ft | 17 kts | 188° |
| 2026-04-23 15:40 | 21.32574 | -157.94326 | 30 ft | 16 kts | 180° |
| 2026-04-23 15:40 | 21.32526 | -157.94312 | 30 ft | 6 kts | 112° |
| 2026-04-23 15:40 | 21.32526 | -157.94265 | 30 ft | 6 kts | 89° |
| 2026-04-23 15:40 | 21.32527 | -157.94214 | 30 ft | 9 kts | 90° |
| 2026-04-23 15:41 | 21.32527 | -157.93915 | 30 ft | 74 kts | 90° |
| 2026-04-23 15:41 | 21.32526 | -157.93128 | 30 ft | 137 kts | 89° |
| 2026-04-23 15:41 | 21.32524 | -157.91922 | 62 ft | 178 kts | 89° |
| 2026-04-23 15:41 | 21.32519 | -157.90657 | 738 ft | 167 kts | 90° |
| 2026-04-23 15:42 | 21.32053 | -157.89490 | 1193 ft | 186 kts | 134° |
| 2026-04-23 15:42 | 21.31305 | -157.88979 | 1361 ft | 202 kts | 156° |
| 2026-04-23 15:42 | 21.29340 | -157.88934 | 1826 ft | 223 kts | 188° |
| 2026-04-23 15:42 | 21.27772 | -157.89265 | 2217 ft | 238 kts | 189° |
| 2026-04-23 15:43 | 21.26076 | -157.89633 | 2504 ft | 259 kts | 189° |
| 2026-04-23 15:43 | 21.24268 | -157.90031 | 3019 ft | 270 kts | 189° |
| 2026-04-23 15:43 | 21.22424 | -157.90437 | 3732 ft | 272 kts | 189° |
| 2026-04-23 15:43 | 21.20571 | -157.90899 | 4452 ft | 276 kts | 198° |
| 2026-04-23 15:44 | 21.19426 | -157.91500 | 4889 ft | 280 kts | 212° |
| 2026-04-23 15:44 | 21.17848 | -157.92735 | 5566 ft | 282 kts | 217° |
| 2026-04-23 15:44 | 21.16293 | -157.94032 | 6234 ft | 285 kts | 217° |
| 2026-04-23 15:44 | 21.14718 | -157.95335 | 6918 ft | 286 kts | 217° |
| 2026-04-23 15:45 | 21.13126 | -157.96626 | 7502 ft | 290 kts | 217° |
| 2026-04-23 15:45 | 21.11504 | -157.97934 | 8045 ft | 294 kts | 217° |
| 2026-04-23 15:45 | 21.09863 | -157.99252 | 8650 ft | 295 kts | 217° |
| 2026-04-23 15:45 | 21.08205 | -158.00582 | 9171 ft | 300 kts | 218° |
| 2026-04-23 15:46 | 21.06525 | -158.01926 | 9715 ft | 303 kts | 218° |
| 2026-04-23 15:46 | 21.04826 | -158.03283 | 10192 ft | 308 kts | 218° |
| 2026-04-23 15:46 | 21.03068 | -158.04682 | 10432 ft | 321 kts | 218° |
| 2026-04-23 15:46 | 21.01239 | -158.06143 | 10635 ft | 335 kts | 218° |
| 2026-04-23 15:47 | 20.99333 | -158.07667 | 10835 ft | 349 kts | 218° |
| 2026-04-23 15:47 | 20.97350 | -158.09245 | 11061 ft | 361 kts | 217° |
| 2026-04-23 15:47 | 20.95314 | -158.10862 | 11461 ft | 367 kts | 217° |
| 2026-04-23 15:47 | 20.93257 | -158.12498 | 11970 ft | 369 kts | 217° |
| 2026-04-23 15:48 | 20.91189 | -158.14144 | 12511 ft | 371 kts | 217° |
| 2026-04-23 15:48 | 20.89106 | -158.15802 | 13023 ft | 375 kts | 217° |
| 2026-04-23 15:48 | 20.87011 | -158.17471 | 13532 ft | 378 kts | 217° |
| 2026-04-23 15:48 | 20.84894 | -158.19157 | 14028 ft | 381 kts | 217° |
| 2026-04-23 15:49 | 20.82765 | -158.20853 | 14487 ft | 384 kts | 218° |
| 2026-04-23 15:49 | 20.80612 | -158.22569 | 14960 ft | 386 kts | 217° |
| 2026-04-23 15:49 | 20.78457 | -158.24281 | 15476 ft | 388 kts | 218° |
| 2026-04-23 15:49 | 20.76284 | -158.26007 | 15960 ft | 390 kts | 217° |
| 2026-04-23 15:50 | 20.74096 | -158.27740 | 16418 ft | 393 kts | 218° |
| 2026-04-23 15:50 | 20.71889 | -158.29486 | 16891 ft | 396 kts | 217° |
| 2026-04-23 15:50 | 20.69673 | -158.31237 | 17369 ft | 398 kts | 218° |
| 2026-04-23 15:50 | 20.67443 | -158.33009 | 17869 ft | 400 kts | 217° |
| 2026-04-23 15:51 | 20.65205 | -158.34790 | 18342 ft | 403 kts | 218° |
| 2026-04-23 15:51 | 20.62948 | -158.36574 | 18758 ft | 405 kts | 217° |
| 2026-04-23 15:51 | 20.60673 | -158.38371 | 19149 ft | 408 kts | 218° |
| 2026-04-23 15:51 | 20.58388 | -158.40177 | 19586 ft | 409 kts | 218° |
| 2026-04-23 15:52 | 20.56099 | -158.41984 | 20001 ft | 411 kts | 218° |
| 2026-04-23 15:52 | 20.53802 | -158.43804 | 20430 ft | 412 kts | 218° |
| 2026-04-23 15:52 | 20.51492 | -158.45634 | 20828 ft | 414 kts | 218° |
| 2026-04-23 15:52 | 20.49172 | -158.47471 | 21201 ft | 417 kts | 218° |
| 2026-04-23 15:53 | 20.46834 | -158.49321 | 21592 ft | 419 kts | 218° |
| 2026-04-23 15:53 | 20.44486 | -158.51175 | 21982 ft | 421 kts | 218° |
| 2026-04-23 15:53 | 20.42125 | -158.53037 | 22370 ft | 423 kts | 217° |
| 2026-04-23 15:53 | 20.39755 | -158.54907 | 22720 ft | 426 kts | 218° |
| 2026-04-23 15:54 | 20.37371 | -158.56791 | 23109 ft | 427 kts | 218° |
| 2026-04-23 15:54 | 20.34981 | -158.58680 | 23467 ft | 429 kts | 218° |
| 2026-04-23 15:54 | 20.32577 | -158.60581 | 23794 ft | 431 kts | 218° |
| 2026-04-23 15:54 | 20.30156 | -158.62491 | 24076 ft | 434 kts | 218° |
| 2026-04-23 15:55 | 20.27728 | -158.64404 | 24356 ft | 435 kts | 218° |
| 2026-04-23 15:55 | 20.25288 | -158.66325 | 24656 ft | 437 kts | 218° |
| 2026-04-23 15:55 | 20.22878 | -158.68225 | 24950 ft | 438 kts | 218° |
| 2026-04-23 15:55 | 20.20423 | -158.70160 | 25243 ft | 439 kts | 218° |
| 2026-04-23 15:56 | 20.17965 | -158.72097 | 25527 ft | 441 kts | 218° |
| 2026-04-23 15:56 | 20.15497 | -158.74038 | 25796 ft | 443 kts | 219° |
| 2026-04-23 15:56 | 20.13015 | -158.75991 | 26060 ft | 444 kts | 218° |
| 2026-04-23 15:56 | 20.10520 | -158.77949 | 26303 ft | 446 kts | 218° |
| 2026-04-23 15:57 | 20.08020 | -158.79913 | 26558 ft | 448 kts | 218° |
| 2026-04-23 15:57 | 20.05507 | -158.81888 | 26812 ft | 450 kts | 218° |
| 2026-04-23 15:57 | 20.02922 | -158.83774 | 27045 ft | 453 kts | 210° |
| 2026-04-23 15:57 | 19.99976 | -158.85007 | 27287 ft | 457 kts | 198° |
| 2026-04-23 15:58 | 19.96902 | -158.85915 | 27535 ft | 459 kts | 197° |
| 2026-04-23 15:58 | 19.93817 | -158.86805 | 27753 ft | 462 kts | 197° |
| 2026-04-23 15:58 | 19.90719 | -158.87729 | 27971 ft | 463 kts | 198° |
| 2026-04-23 15:58 | 19.87614 | -158.88684 | 28207 ft | 465 kts | 198° |
| 2026-04-23 15:59 | 19.84505 | -158.89649 | 28430 ft | 466 kts | 198° |
| 2026-04-23 15:59 | 19.81388 | -158.90619 | 28647 ft | 468 kts | 198° |
| 2026-04-23 15:59 | 19.78258 | -158.91595 | 28862 ft | 470 kts | 198° |
| 2026-04-23 15:59 | 19.75118 | -158.92575 | 29081 ft | 471 kts | 198° |
| 2026-04-23 16:00 | 19.71973 | -158.93552 | 29276 ft | 473 kts | 198° |
| 2026-04-23 16:00 | 19.68802 | -158.94539 | 29475 ft | 474 kts | 198° |
| 2026-04-23 16:00 | 19.65633 | -158.95526 | 29664 ft | 476 kts | 198° |
| 2026-04-23 16:00 | 19.62450 | -158.96516 | 29848 ft | 477 kts | 198° |
| 2026-04-23 16:01 | 19.60223 | -158.97207 | 29977 ft | 478 kts | 198° |
| 2026-04-23 16:01 | 19.57033 | -158.98196 | 30209 ft | 478 kts | 199° |
| 2026-04-23 16:01 | 19.53838 | -158.99188 | 30416 ft | 477 kts | 199° |
| 2026-04-23 16:02 | 19.50655 | -159.00174 | 30597 ft | 477 kts | 199° |
| 2026-04-23 16:02 | 19.47464 | -159.01164 | 30775 ft | 477 kts | 199° |
| 2026-04-23 16:02 | 19.44324 | -159.02139 | 30954 ft | 477 kts | 199° |
| 2026-04-23 16:02 | 19.41101 | -159.03141 | 31154 ft | 476 kts | 199° |
| 2026-04-23 16:03 | 19.37921 | -159.04124 | 31322 ft | 476 kts | 199° |
| 2026-04-23 16:03 | 19.34748 | -159.05105 | 31497 ft | 475 kts | 199° |
| 2026-04-23 16:03 | 19.31576 | -159.06086 | 31673 ft | 475 kts | 199° |
| 2026-04-23 16:04 | 19.25325 | -159.08021 | 32005 ft | 474 kts | 199° |
| 2026-04-23 16:04 | 19.22162 | -159.09000 | 32111 ft | 474 kts | 199° |
| 2026-04-23 16:04 | 19.18989 | -159.09981 | 32130 ft | 475 kts | 199° |
| 2026-04-23 16:05 | 19.13722 | -159.11605 | 32103 ft | 475 kts | 199° |
| 2026-04-23 16:05 | 19.06311 | -159.13894 | 32086 ft | 474 kts | 199° |
| 2026-04-23 16:06 | 18.99983 | -159.15845 | 32087 ft | 474 kts | 199° |
| 2026-04-23 16:06 | 18.93650 | -159.17797 | 32084 ft | 474 kts | 199° |
| 2026-04-23 16:07 | 18.87311 | -159.19746 | 32084 ft | 475 kts | 199° |
| 2026-04-23 16:07 | 18.84034 | -159.20756 | 32086 ft | 475 kts | 199° |
| 2026-04-23 16:08 | 18.77688 | -159.22708 | 32086 ft | 475 kts | 199° |
| 2026-04-23 16:08 | 18.71342 | -159.24655 | 32086 ft | 475 kts | 199° |
| 2026-04-23 16:09 | 18.64997 | -159.26605 | 32085 ft | 475 kts | 199° |
| 2026-04-23 16:09 | 18.58645 | -159.28552 | 32080 ft | 476 kts | 199° |
| 2026-04-23 16:10 | 18.52291 | -159.30503 | 32082 ft | 476 kts | 199° |
| 2026-04-23 16:10 | 18.45930 | -159.32450 | 32082 ft | 476 kts | 198° |
| 2026-04-23 16:11 | 18.39568 | -159.34397 | 32086 ft | 476 kts | 199° |
| 2026-04-23 16:11 | 18.33212 | -159.36342 | 32082 ft | 476 kts | 199° |
| 2026-04-23 16:12 | 18.26889 | -159.38270 | 32080 ft | 476 kts | 198° |
| 2026-04-23 16:12 | 18.20530 | -159.40214 | 32082 ft | 476 kts | 198° |
| 2026-04-23 16:13 | 18.14176 | -159.42155 | 32080 ft | 476 kts | 198° |
| 2026-04-23 16:13 | 18.04641 | -159.45057 | 32080 ft | 476 kts | 198° |
| 2026-04-23 16:14 | 17.98281 | -159.46993 | 32075 ft | 476 kts | 198° |
| 2026-04-23 16:14 | 17.91927 | -159.48930 | 32077 ft | 476 kts | 198° |
| 2026-04-23 16:15 | 17.85564 | -159.50866 | 32078 ft | 476 kts | 198° |
| 2026-04-23 16:15 | 17.79201 | -159.52797 | 32070 ft | 476 kts | 198° |
| 2026-04-23 16:16 | 17.72721 | -159.54241 | 32071 ft | 480 kts | 187° |
| 2026-04-23 16:16 | 17.66050 | -159.54720 | 32073 ft | 480 kts | 186° |
| 2026-04-23 16:17 | 17.59388 | -159.55228 | 32070 ft | 480 kts | 186° |
| 2026-04-23 16:17 | 17.52735 | -159.55773 | 32071 ft | 480 kts | 186° |
| 2026-04-23 16:18 | 17.46072 | -159.56322 | 32071 ft | 480 kts | 186° |
| 2026-04-23 16:18 | 17.39410 | -159.56868 | 32071 ft | 480 kts | 186° |
| 2026-04-23 16:19 | 17.32797 | -159.57411 | 32071 ft | 480 kts | 186° |
| 2026-04-23 16:19 | 17.26137 | -159.57957 | 32068 ft | 480 kts | 186° |
| 2026-04-23 16:20 | 17.19477 | -159.58505 | 32071 ft | 479 kts | 186° |
| 2026-04-23 16:20 | 17.12823 | -159.59050 | 32071 ft | 479 kts | 186° |
| 2026-04-23 16:21 | 17.06169 | -159.59594 | 32068 ft | 479 kts | 186° |
| 2026-04-23 16:21 | 16.99514 | -159.60139 | 32066 ft | 479 kts | 186° |
| 2026-04-23 16:22 | 16.92863 | -159.60681 | 32068 ft | 479 kts | 186° |
| 2026-04-23 16:22 | 16.86214 | -159.61224 | 32067 ft | 479 kts | 186° |
| 2026-04-23 16:23 | 16.79562 | -159.61767 | 32062 ft | 479 kts | 186° |
| 2026-04-23 16:23 | 16.72909 | -159.62310 | 32062 ft | 479 kts | 186° |
| 2026-04-23 16:24 | 16.66257 | -159.62851 | 32061 ft | 479 kts | 186° |
| 2026-04-23 16:24 | 16.59647 | -159.63390 | 32061 ft | 479 kts | 186° |
| 2026-04-23 16:25 | 16.52997 | -159.63933 | 32061 ft | 480 kts | 186° |
| 2026-04-23 16:25 | 16.46344 | -159.64472 | 32062 ft | 480 kts | 186° |
| 2026-04-23 16:26 | 16.39690 | -159.65011 | 32056 ft | 480 kts | 186° |
| 2026-04-23 16:26 | 16.33034 | -159.65551 | 32054 ft | 480 kts | 186° |
| 2026-04-23 16:27 | 16.26380 | -159.66088 | 32052 ft | 480 kts | 186° |
| 2026-04-23 16:27 | 16.19725 | -159.66626 | 32058 ft | 480 kts | 186° |
| 2026-04-23 16:28 | 16.13074 | -159.67169 | 32057 ft | 479 kts | 186° |
| 2026-04-23 16:28 | 16.06426 | -159.67710 | 32056 ft | 479 kts | 186° |
| 2026-04-23 16:29 | 15.99784 | -159.68247 | 32051 ft | 479 kts | 186° |
| 2026-04-23 16:29 | 15.93140 | -159.68784 | 32053 ft | 479 kts | 186° |
| 2026-04-23 16:30 | 15.86489 | -159.69325 | 32057 ft | 479 kts | 186° |
| 2026-04-23 16:30 | 15.79840 | -159.69861 | 32052 ft | 479 kts | 186° |
| 2026-04-23 16:31 | 15.73214 | -159.70393 | 31919 ft | 478 kts | 186° |
| 2026-04-23 16:31 | 15.66586 | -159.70929 | 31993 ft | 478 kts | 186° |
| 2026-04-23 16:32 | 15.59943 | -159.71466 | 32041 ft | 479 kts | 186° |
| 2026-04-23 16:32 | 15.54416 | -159.71911 | 32045 ft | 479 kts | 186° |
| 2026-04-23 16:33 | 15.47770 | -159.72447 | 32049 ft | 479 kts | 186° |
| 2026-04-23 16:33 | 15.41120 | -159.72980 | 32051 ft | 479 kts | 186° |
| 2026-04-23 16:34 | 15.34475 | -159.73513 | 32046 ft | 479 kts | 186° |
| 2026-04-23 16:34 | 15.27831 | -159.74048 | 32051 ft | 479 kts | 186° |
| 2026-04-23 16:35 | 15.21196 | -159.74580 | 32050 ft | 479 kts | 186° |
| 2026-04-23 16:35 | 15.14553 | -159.75115 | 32049 ft | 479 kts | 186° |
| 2026-04-23 16:36 | 15.07904 | -159.75648 | 32039 ft | 479 kts | 186° |
| 2026-04-23 16:36 | 15.01272 | -159.76179 | 32049 ft | 478 kts | 186° |
| 2026-04-23 16:37 | 14.94632 | -159.76712 | 32036 ft | 478 kts | 186° |
| 2026-04-23 16:37 | 14.87999 | -159.77242 | 32035 ft | 478 kts | 186° |
| 2026-04-23 16:38 | 14.81362 | -159.77773 | 32036 ft | 478 kts | 186° |
| 2026-04-23 16:38 | 14.74727 | -159.78304 | 32037 ft | 478 kts | 186° |
| 2026-04-23 16:39 | 14.68087 | -159.78837 | 32034 ft | 478 kts | 186° |
| 2026-04-23 16:39 | 14.61454 | -159.79366 | 32033 ft | 478 kts | 186° |
| 2026-04-23 16:40 | 14.54821 | -159.79895 | 32031 ft | 478 kts | 186° |
| 2026-04-23 16:40 | 14.48186 | -159.80423 | 32035 ft | 478 kts | 186° |
| 2026-04-23 16:41 | 14.41548 | -159.80953 | 32028 ft | 478 kts | 186° |
| 2026-04-23 16:41 | 14.34916 | -159.81480 | 32044 ft | 478 kts | 186° |
| 2026-04-23 16:42 | 14.28277 | -159.82009 | 32027 ft | 478 kts | 186° |
| 2026-04-23 16:42 | 14.21639 | -159.82537 | 32026 ft | 478 kts | 186° |
| 2026-04-23 16:43 | 14.15008 | -159.83065 | 32027 ft | 478 kts | 186° |
| 2026-04-23 16:43 | 14.08370 | -159.83591 | 32025 ft | 478 kts | 186° |
| 2026-04-23 16:44 | 14.01732 | -159.84118 | 32005 ft | 478 kts | 186° |
| 2026-04-23 16:44 | 13.95096 | -159.84646 | 32019 ft | 478 kts | 186° |
| 2026-04-23 16:45 | 13.88459 | -159.85173 | 32022 ft | 478 kts | 186° |
| 2026-04-23 16:45 | 13.81820 | -159.85699 | 32023 ft | 478 kts | 186° |
| 2026-04-23 16:46 | 13.75182 | -159.86223 | 32018 ft | 478 kts | 186° |
| 2026-04-23 16:46 | 13.68583 | -159.86748 | 32017 ft | 479 kts | 186° |
| 2026-04-23 16:47 | 13.61934 | -159.87274 | 32016 ft | 479 kts | 186° |
| 2026-04-23 16:47 | 13.55286 | -159.87801 | 32017 ft | 479 kts | 186° |
| 2026-04-23 16:48 | 13.48632 | -159.88327 | 32017 ft | 479 kts | 186° |
| 2026-04-23 16:48 | 13.41984 | -159.88853 | 32016 ft | 479 kts | 186° |
| 2026-04-23 16:49 | 13.35336 | -159.89377 | 32014 ft | 479 kts | 186° |
| 2026-04-23 16:49 | 13.28689 | -159.89904 | 32015 ft | 479 kts | 186° |
| 2026-04-23 16:50 | 13.22044 | -159.90428 | 32012 ft | 479 kts | 186° |
| 2026-04-23 16:50 | 13.15398 | -159.90951 | 32012 ft | 479 kts | 186° |
| 2026-04-23 16:51 | 13.08752 | -159.91473 | 32010 ft | 479 kts | 186° |
| 2026-04-23 16:51 | 13.02107 | -159.91996 | 32007 ft | 478 kts | 186° |
| 2026-04-23 16:52 | 12.95472 | -159.92519 | 32006 ft | 478 kts | 186° |
| 2026-04-23 16:52 | 12.88846 | -159.93040 | 32007 ft | 478 kts | 186° |
| 2026-04-23 16:53 | 12.82215 | -159.93561 | 32006 ft | 477 kts | 186° |
| 2026-04-23 16:53 | 12.75598 | -159.94083 | 32006 ft | 477 kts | 186° |
| 2026-04-23 16:54 | 12.68977 | -159.94603 | 32005 ft | 477 kts | 186° |
| 2026-04-23 16:54 | 12.62345 | -159.95123 | 32006 ft | 478 kts | 186° |
| 2026-04-23 16:55 | 12.55714 | -159.95644 | 32003 ft | 478 kts | 186° |
| 2026-04-23 16:55 | 12.49084 | -159.96164 | 32004 ft | 478 kts | 186° |
| 2026-04-23 16:56 | 12.42449 | -159.96684 | 32003 ft | 478 kts | 186° |
| 2026-04-23 16:56 | 12.35822 | -159.97202 | 31999 ft | 478 kts | 187° |
| 2026-04-23 16:57 | 12.29222 | -159.97717 | 32001 ft | 479 kts | 187° |
| 2026-04-23 16:57 | 12.22568 | -159.98237 | 32000 ft | 479 kts | 187° |
| 2026-04-23 16:58 | 12.15915 | -159.98757 | 32000 ft | 479 kts | 187° |
| 2026-04-23 16:58 | 12.09260 | -159.99277 | 32001 ft | 479 kts | 187° |
| 2026-04-23 16:59 | 12.02599 | -159.99798 | 32001 ft | 479 kts | 187° |
| 2026-04-23 16:59 | 11.95979 | -160.00194 | 31995 ft | 480 kts | 185° |
| 2026-04-23 17:00 | 11.89303 | -160.00508 | 31998 ft | 480 kts | 185° |
| 2026-04-23 17:00 | 11.82626 | -160.00820 | 31996 ft | 480 kts | 185° |
| 2026-04-23 17:01 | 11.75942 | -160.01132 | 31995 ft | 480 kts | 185° |
| 2026-04-23 17:01 | 11.69268 | -160.01446 | 31992 ft | 479 kts | 185° |
| 2026-04-23 17:02 | 11.62603 | -160.01761 | 31991 ft | 478 kts | 185° |
| 2026-04-23 17:02 | 11.55957 | -160.02073 | 31991 ft | 478 kts | 185° |
| 2026-04-23 17:03 | 11.49339 | -160.02380 | 31992 ft | 478 kts | 185° |
| 2026-04-23 17:03 | 11.42684 | -160.02700 | 31985 ft | 478 kts | 186° |
| 2026-04-23 17:04 | 11.36032 | -160.03024 | 31987 ft | 478 kts | 185° |
| 2026-04-23 17:04 | 11.29380 | -160.03327 | 31983 ft | 478 kts | 185° |
| 2026-04-23 17:05 | 11.22729 | -160.03626 | 31986 ft | 478 kts | 185° |
| 2026-04-23 17:05 | 11.16075 | -160.03935 | 31983 ft | 478 kts | 186° |
| 2026-04-23 17:06 | 11.09467 | -160.04243 | 31983 ft | 478 kts | 186° |
| 2026-04-23 17:06 | 11.02821 | -160.04554 | 31978 ft | 478 kts | 186° |
| 2026-04-23 17:07 | 10.96174 | -160.04863 | 31978 ft | 478 kts | 186° |
| 2026-04-23 17:07 | 10.89527 | -160.05172 | 31977 ft | 478 kts | 186° |
| 2026-04-23 17:08 | 10.82881 | -160.05480 | 31977 ft | 478 kts | 185° |
| 2026-04-23 17:08 | 10.76233 | -160.05791 | 31981 ft | 478 kts | 186° |
| 2026-04-23 17:09 | 10.69585 | -160.06101 | 31976 ft | 478 kts | 186° |
| 2026-04-23 17:09 | 10.62929 | -160.06409 | 31967 ft | 478 kts | 186° |
| 2026-04-23 17:10 | 10.56329 | -160.06716 | 31973 ft | 477 kts | 186° |
| 2026-04-23 17:10 | 10.49693 | -160.07025 | 31967 ft | 477 kts | 186° |
| 2026-04-23 17:11 | 10.43053 | -160.07334 | 31969 ft | 477 kts | 186° |
| 2026-04-23 17:11 | 10.36407 | -160.07640 | 31967 ft | 477 kts | 186° |
| 2026-04-23 17:12 | 10.29766 | -160.07949 | 31958 ft | 477 kts | 186° |
| 2026-04-23 17:12 | 10.23127 | -160.08258 | 31967 ft | 478 kts | 186° |
| 2026-04-23 17:13 | 10.16525 | -160.08564 | 31972 ft | 478 kts | 186° |
| 2026-04-23 17:13 | 10.09878 | -160.08871 | 31969 ft | 478 kts | 186° |
| 2026-04-23 17:14 | 10.03234 | -160.09180 | 31965 ft | 478 kts | 186° |
| 2026-04-23 17:14 | 9.96592 | -160.09486 | 31965 ft | 478 kts | 186° |
| 2026-04-23 17:15 | 9.89950 | -160.09794 | 31958 ft | 478 kts | 186° |
| 2026-04-23 17:15 | 9.83288 | -160.10102 | 31961 ft | 478 kts | 186° |
| 2026-04-23 17:16 | 9.76684 | -160.10405 | 31959 ft | 478 kts | 186° |
| 2026-04-23 17:16 | 9.69998 | -160.10715 | 31955 ft | 478 kts | 186° |
| 2026-04-23 17:17 | 9.63386 | -160.11021 | 31957 ft | 478 kts | 186° |
| 2026-04-23 17:17 | 9.56743 | -160.11328 | 31960 ft | 478 kts | 186° |
| 2026-04-23 17:18 | 9.46771 | -160.11788 | 31950 ft | 477 kts | 186° |
| 2026-04-23 17:19 | 9.41258 | -160.12043 | 31950 ft | 477 kts | 186° |
| 2026-04-23 17:19 | 9.34620 | -160.12349 | 31949 ft | 477 kts | 186° |
| 2026-04-23 17:20 | 9.27984 | -160.12655 | 31950 ft | 477 kts | 186° |
| 2026-04-23 17:21 | 9.14705 | -160.13267 | 31953 ft | 477 kts | 186° |
| 2026-04-23 17:21 | 9.04790 | -160.13724 | 31951 ft | 477 kts | 186° |
| 2026-04-23 17:22 | 8.94833 | -160.14182 | 31947 ft | 477 kts | 186° |
| 2026-04-23 17:23 | 8.84864 | -160.14641 | 31946 ft | 477 kts | 186° |
| 2026-04-23 17:24 | 8.74919 | -160.15098 | 31948 ft | 477 kts | 186° |
| 2026-04-23 17:24 | 8.65006 | -160.15554 | 31947 ft | 477 kts | 186° |
| 2026-04-23 17:25 | 8.55046 | -160.16012 | 31942 ft | 477 kts | 186° |
| 2026-04-23 17:26 | 8.41778 | -160.16621 | 31943 ft | 477 kts | 186° |
| 2026-04-23 17:27 | 8.31876 | -160.17076 | 31948 ft | 476 kts | 186° |
| 2026-04-23 17:27 | 8.25252 | -160.17378 | 31947 ft | 476 kts | 186° |
| 2026-04-23 17:28 | 8.18626 | -160.17682 | 31939 ft | 476 kts | 186° |
| 2026-04-23 17:28 | 8.11995 | -160.17986 | 31945 ft | 476 kts | 186° |
| 2026-04-23 17:29 | 8.05366 | -160.18292 | 31945 ft | 477 kts | 186° |
| 2026-04-23 17:30 | 7.95419 | -160.18744 | 31944 ft | 477 kts | 186° |
| 2026-04-23 17:30 | 7.85481 | -160.19200 | 31933 ft | 477 kts | 186° |
| 2026-04-23 17:31 | 7.78892 | -160.19501 | 31944 ft | 477 kts | 186° |
| 2026-04-23 17:31 | 7.72261 | -160.19805 | 31944 ft | 477 kts | 186° |
| 2026-04-23 17:32 | 7.65642 | -160.20107 | 31939 ft | 477 kts | 186° |
| 2026-04-23 17:32 | 7.59002 | -160.20412 | 31941 ft | 477 kts | 186° |
| 2026-04-23 17:33 | 7.52372 | -160.20715 | 31941 ft | 477 kts | 186° |
| 2026-04-23 17:33 | 7.45729 | -160.21017 | 31941 ft | 477 kts | 186° |
| 2026-04-23 17:34 | 7.39093 | -160.21320 | 31940 ft | 477 kts | 186° |
| 2026-04-23 17:35 | 7.29181 | -160.21774 | 31943 ft | 477 kts | 186° |
| 2026-04-23 17:35 | 7.19239 | -160.22232 | 31941 ft | 476 kts | 186° |
| 2026-04-23 17:36 | 7.12614 | -160.22533 | 31938 ft | 476 kts | 186° |
| 2026-04-23 17:36 | 7.05992 | -160.22832 | 31920 ft | 475 kts | 186° |
| 2026-04-23 17:37 | 6.99376 | -160.23135 | 31893 ft | 476 kts | 186° |
| 2026-04-23 17:38 | 6.89445 | -160.23586 | 31932 ft | 476 kts | 186° |
| 2026-04-23 17:38 | 6.82825 | -160.23887 | 31937 ft | 476 kts | 186° |
| 2026-04-23 17:39 | 6.76201 | -160.24189 | 31939 ft | 477 kts | 186° |
| 2026-04-23 17:39 | 6.69567 | -160.24491 | 31973 ft | 478 kts | 186° |
| 2026-04-23 17:39 | 6.66236 | -160.24643 | 32146 ft | 478 kts | 186° |
| 2026-04-23 17:40 | 6.62956 | -160.24793 | 32335 ft | 478 kts | 186° |
| 2026-04-23 17:40 | 6.59632 | -160.24944 | 32498 ft | 478 kts | 186° |
| 2026-04-23 17:40 | 6.56308 | -160.25094 | 32636 ft | 479 kts | 186° |
| 2026-04-23 17:40 | 6.52982 | -160.25245 | 32771 ft | 479 kts | 186° |
| 2026-04-23 17:41 | 6.49638 | -160.25397 | 32908 ft | 480 kts | 186° |
| 2026-04-23 17:41 | 6.42965 | -160.25700 | 33157 ft | 481 kts | 186° |
| 2026-04-23 17:41 | 6.39616 | -160.25852 | 33268 ft | 482 kts | 186° |
| 2026-04-23 17:42 | 6.32907 | -160.26156 | 33522 ft | 483 kts | 186° |
| 2026-04-23 17:42 | 6.29547 | -160.26310 | 33651 ft | 483 kts | 186° |
| 2026-04-23 17:42 | 6.26193 | -160.26462 | 33779 ft | 483 kts | 186° |
| 2026-04-23 17:43 | 6.22838 | -160.26614 | 33901 ft | 482 kts | 186° |
| 2026-04-23 17:43 | 6.19486 | -160.26767 | 34019 ft | 482 kts | 186° |
| 2026-04-23 17:43 | 6.16135 | -160.26919 | 34125 ft | 482 kts | 186° |
| 2026-04-23 17:43 | 6.12824 | -160.27069 | 34230 ft | 482 kts | 186° |
| 2026-04-23 17:44 | 6.09477 | -160.27222 | 34340 ft | 481 kts | 186° |
| 2026-04-23 17:44 | 6.06131 | -160.27373 | 34448 ft | 480 kts | 186° |
| 2026-04-23 17:44 | 5.99460 | -160.27675 | 34683 ft | 479 kts | 186° |
| 2026-04-23 17:45 | 5.89479 | -160.28128 | 34952 ft | 478 kts | 186° |
| 2026-04-23 17:46 | 5.79560 | -160.28578 | 35180 ft | 478 kts | 186° |
| 2026-04-23 17:46 | 5.72928 | -160.28878 | 35349 ft | 477 kts | 186° |
| 2026-04-23 17:47 | 5.69613 | -160.29029 | 35464 ft | 475 kts | 185° |
| 2026-04-23 17:47 | 5.66309 | -160.29180 | 35564 ft | 475 kts | 185° |
| 2026-04-23 17:47 | 5.59720 | -160.29477 | 35714 ft | 474 kts | 185° |
| 2026-04-23 17:48 | 5.56431 | -160.29624 | 35765 ft | 473 kts | 185° |
| 2026-04-23 17:48 | 5.49849 | -160.29923 | 35865 ft | 473 kts | 185° |
| 2026-04-23 17:49 | 5.43264 | -160.30223 | 35937 ft | 473 kts | 185° |
| 2026-04-23 17:49 | 5.36724 | -160.30523 | 35931 ft | 472 kts | 185° |
| 2026-04-23 17:50 | 5.30157 | -160.30817 | 35929 ft | 472 kts | 185° |
| 2026-04-23 17:50 | 5.20310 | -160.31262 | 35929 ft | 473 kts | 185° |
| 2026-04-23 17:51 | 5.13733 | -160.31559 | 35931 ft | 472 kts | 185° |
| 2026-04-23 17:52 | 5.03879 | -160.32007 | 35932 ft | 473 kts | 185° |
| 2026-04-23 17:52 | 4.94063 | -160.32449 | 35932 ft | 473 kts | 185° |
| 2026-04-23 17:53 | 4.84211 | -160.32895 | 35932 ft | 472 kts | 185° |
| 2026-04-23 17:54 | 4.77647 | -160.33193 | 35932 ft | 472 kts | 185° |
| 2026-04-23 17:54 | 4.67792 | -160.33637 | 35932 ft | 472 kts | 185° |
| 2026-04-23 17:55 | 4.57921 | -160.34081 | 35932 ft | 472 kts | 185° |
| 2026-04-23 17:56 | 4.51378 | -160.34378 | 35930 ft | 472 kts | 185° |
| 2026-04-23 17:56 | 4.41519 | -160.34822 | 35931 ft | 472 kts | 185° |
| 2026-04-23 17:57 | 4.34935 | -160.35121 | 35935 ft | 473 kts | 185° |
| 2026-04-23 17:58 | 4.25064 | -160.35568 | 35930 ft | 474 kts | 185° |
| 2026-04-23 17:58 | 4.18477 | -160.35863 | 35931 ft | 474 kts | 185° |
| 2026-04-23 17:59 | 4.11888 | -160.36160 | 35935 ft | 473 kts | 185° |
| 2026-04-23 17:59 | 4.05299 | -160.36457 | 35935 ft | 473 kts | 185° |
| 2026-04-23 18:00 | 3.98749 | -160.36754 | 35936 ft | 473 kts | 185° |
| 2026-04-23 18:00 | 3.92155 | -160.37052 | 35939 ft | 474 kts | 185° |
| 2026-04-23 18:01 | 3.85567 | -160.37348 | 35936 ft | 474 kts | 185° |
| 2026-04-23 18:01 | 3.78973 | -160.37645 | 35934 ft | 474 kts | 185° |
| 2026-04-23 18:02 | 3.73504 | -160.37891 | 35934 ft | 473 kts | 185° |
| 2026-04-23 18:02 | 3.65794 | -160.38240 | 35934 ft | 473 kts | 185° |
| 2026-04-23 18:03 | 3.59251 | -160.38535 | 35933 ft | 474 kts | 185° |
| 2026-04-23 18:03 | 3.52661 | -160.38831 | 35937 ft | 475 kts | 185° |
| 2026-04-23 18:04 | 3.46069 | -160.39127 | 35934 ft | 475 kts | 185° |
| 2026-04-23 18:04 | 3.39477 | -160.39423 | 35934 ft | 474 kts | 185° |
| 2026-04-23 18:05 | 3.32877 | -160.39720 | 35937 ft | 474 kts | 185° |
| 2026-04-23 18:05 | 3.27390 | -160.39969 | 35939 ft | 474 kts | 185° |
| 2026-04-23 18:06 | 3.20794 | -160.40266 | 35940 ft | 474 kts | 185° |
| 2026-04-23 18:06 | 3.14195 | -160.40562 | 35937 ft | 475 kts | 185° |
| 2026-04-23 18:07 | 3.07604 | -160.40859 | 35935 ft | 474 kts | 185° |
| 2026-04-23 18:07 | 3.01017 | -160.41158 | 35936 ft | 473 kts | 185° |
| 2026-04-23 18:08 | 2.94427 | -160.41453 | 35933 ft | 473 kts | 185° |
| 2026-04-23 18:08 | 2.87883 | -160.41747 | 35934 ft | 473 kts | 185° |
| 2026-04-23 18:09 | 2.81292 | -160.42043 | 35938 ft | 474 kts | 184° |
| 2026-04-23 18:09 | 2.74706 | -160.42340 | 35937 ft | 474 kts | 184° |
| 2026-04-23 18:10 | 2.68127 | -160.42638 | 35937 ft | 474 kts | 184° |
| 2026-04-23 18:10 | 2.61537 | -160.42933 | 35936 ft | 474 kts | 184° |
| 2026-04-23 18:11 | 2.54953 | -160.43227 | 35936 ft | 474 kts | 184° |
| 2026-04-23 18:11 | 2.48382 | -160.43520 | 35935 ft | 473 kts | 184° |
| 2026-04-23 18:12 | 2.41806 | -160.43818 | 35935 ft | 472 kts | 184° |
| 2026-04-23 18:12 | 2.35219 | -160.44116 | 35935 ft | 473 kts | 184° |
| 2026-04-23 18:13 | 2.28637 | -160.44411 | 35932 ft | 473 kts | 184° |
| 2026-04-23 18:13 | 2.22102 | -160.44704 | 35934 ft | 474 kts | 184° |
| 2026-04-23 18:14 | 2.15529 | -160.45000 | 35933 ft | 473 kts | 185° |
| 2026-04-23 18:14 | 2.08934 | -160.45297 | 35935 ft | 474 kts | 185° |
| 2026-04-23 18:15 | 2.02340 | -160.45593 | 35935 ft | 474 kts | 185° |
| 2026-04-23 18:15 | 1.95749 | -160.45889 | 35937 ft | 475 kts | 185° |
| 2026-04-23 18:16 | 1.89161 | -160.46185 | 35935 ft | 474 kts | 185° |
| 2026-04-23 18:16 | 1.82560 | -160.46481 | 35934 ft | 473 kts | 185° |
| 2026-04-23 18:17 | 1.72707 | -160.46924 | 35932 ft | 474 kts | 185° |
| 2026-04-23 18:17 | 1.66109 | -160.47221 | 35936 ft | 474 kts | 185° |
| 2026-04-23 18:18 | 1.59511 | -160.47516 | 35929 ft | 474 kts | 185° |
| 2026-04-23 18:18 | 1.52910 | -160.47812 | 35934 ft | 474 kts | 185° |
| 2026-04-23 18:19 | 1.46306 | -160.48109 | 35935 ft | 475 kts | 185° |
| 2026-04-23 18:19 | 1.39718 | -160.48405 | 35932 ft | 473 kts | 185° |
| 2026-04-23 18:20 | 1.33137 | -160.48700 | 35935 ft | 472 kts | 185° |
| 2026-04-23 18:20 | 1.26593 | -160.48995 | 35931 ft | 474 kts | 185° |
| 2026-04-23 18:21 | 1.20007 | -160.49290 | 35931 ft | 473 kts | 185° |
| 2026-04-23 18:21 | 1.13428 | -160.49585 | 35924 ft | 473 kts | 185° |
| 2026-04-23 18:22 | 1.06848 | -160.49880 | 35932 ft | 473 kts | 185° |
| 2026-04-23 18:22 | 1.00265 | -160.50179 | 35929 ft | 473 kts | 185° |
| 2026-04-23 18:23 | 0.90436 | -160.50619 | 35934 ft | 473 kts | 185° |
| 2026-04-23 18:24 | 0.80568 | -160.51062 | 35928 ft | 473 kts | 185° |
| 2026-04-23 18:25 | 0.70708 | -160.51505 | 35931 ft | 473 kts | 185° |
| 2026-04-23 18:25 | 0.64177 | -160.51796 | 35932 ft | 473 kts | 185° |
| 2026-04-23 18:26 | 0.57608 | -160.52092 | 35931 ft | 473 kts | 185° |
| 2026-04-23 18:26 | 0.51028 | -160.52388 | 35930 ft | 474 kts | 185° |
| 2026-04-23 18:27 | 0.44450 | -160.52683 | 35932 ft | 473 kts | 185° |
| 2026-04-23 18:27 | 0.37913 | -160.52976 | 35931 ft | 472 kts | 185° |
| 2026-04-23 18:28 | 0.31342 | -160.53270 | 35930 ft | 473 kts | 185° |
| 2026-04-23 18:28 | 0.24773 | -160.53565 | 35929 ft | 473 kts | 185° |
| 2026-04-23 18:29 | 0.18198 | -160.53860 | 35929 ft | 472 kts | 185° |
| 2026-04-23 18:29 | 0.11614 | -160.54156 | 35930 ft | 474 kts | 185° |
| 2026-04-23 18:30 | 0.05032 | -160.54452 | 35930 ft | 474 kts | 185° |
| 2026-04-23 18:30 | -0.01560 | -160.54748 | 35935 ft | 472 kts | 185° |
| 2026-04-23 18:31 | -0.08127 | -160.55042 | 35932 ft | 473 kts | 185° |
| 2026-04-23 18:31 | -0.14688 | -160.55337 | 35934 ft | 472 kts | 185° |
| 2026-04-23 18:32 | -0.21213 | -160.55629 | 35935 ft | 472 kts | 185° |
| 2026-04-23 18:32 | -0.27780 | -160.55922 | 35934 ft | 472 kts | 185° |
| 2026-04-23 18:33 | -0.34351 | -160.56217 | 35935 ft | 472 kts | 185° |
| 2026-04-23 18:33 | -0.40896 | -160.56510 | 35935 ft | 470 kts | 185° |
| 2026-04-23 18:34 | -0.47445 | -160.56805 | 35938 ft | 470 kts | 185° |
| 2026-04-23 18:34 | -0.53981 | -160.57097 | 35938 ft | 471 kts | 185° |
| 2026-04-23 18:35 | -0.60523 | -160.57392 | 35937 ft | 470 kts | 185° |
| 2026-04-23 18:35 | -0.67070 | -160.57686 | 35939 ft | 471 kts | 185° |
| 2026-04-23 18:36 | -0.73570 | -160.57977 | 35942 ft | 469 kts | 185° |
| 2026-04-23 18:36 | -0.80091 | -160.58269 | 35941 ft | 469 kts | 185° |
| 2026-04-23 18:37 | -0.86606 | -160.58561 | 35940 ft | 469 kts | 185° |
| 2026-04-23 18:37 | -0.93124 | -160.58854 | 35939 ft | 469 kts | 185° |
| 2026-04-23 18:38 | -0.99640 | -160.59148 | 35939 ft | 469 kts | 185° |
| 2026-04-23 18:38 | -1.06161 | -160.59441 | 35941 ft | 469 kts | 185° |
| 2026-04-23 18:39 | -1.12673 | -160.59732 | 35940 ft | 467 kts | 185° |
| 2026-04-23 18:39 | -1.19172 | -160.60023 | 35938 ft | 467 kts | 185° |
| 2026-04-23 18:40 | -1.25622 | -160.60313 | 35941 ft | 467 kts | 185° |
| 2026-04-23 18:40 | -1.32122 | -160.60604 | 35941 ft | 467 kts | 185° |
| 2026-04-23 18:41 | -1.38621 | -160.60895 | 35937 ft | 467 kts | 185° |
| 2026-04-23 18:41 | -1.45120 | -160.61188 | 35939 ft | 467 kts | 186° |
| 2026-04-23 18:42 | -1.51606 | -160.61478 | 35942 ft | 466 kts | 186° |
| 2026-04-23 18:42 | -1.58062 | -160.61768 | 35941 ft | 466 kts | 186° |
| 2026-04-23 18:43 | -1.64538 | -160.62059 | 35940 ft | 466 kts | 186° |
| 2026-04-23 18:43 | -1.71029 | -160.62350 | 35941 ft | 466 kts | 186° |
| 2026-04-23 18:44 | -1.77522 | -160.62641 | 35936 ft | 466 kts | 186° |
| 2026-04-23 18:44 | -1.84016 | -160.62934 | 35939 ft | 467 kts | 186° |
| 2026-04-23 18:45 | -1.90511 | -160.63226 | 35939 ft | 467 kts | 186° |
| 2026-04-23 18:45 | -1.96960 | -160.63515 | 35938 ft | 467 kts | 186° |
| 2026-04-23 18:46 | -2.03456 | -160.63806 | 35942 ft | 467 kts | 186° |
| 2026-04-23 18:46 | -2.09949 | -160.64098 | 35941 ft | 467 kts | 186° |
| 2026-04-23 18:47 | -2.16451 | -160.64390 | 35940 ft | 467 kts | 186° |
| 2026-04-23 18:47 | -2.22955 | -160.64681 | 35939 ft | 468 kts | 186° |
| 2026-04-23 18:48 | -2.29429 | -160.64972 | 35941 ft | 468 kts | 186° |
| 2026-04-23 18:48 | -2.35938 | -160.65264 | 35941 ft | 468 kts | 186° |
| 2026-04-23 18:49 | -2.42439 | -160.65557 | 35938 ft | 468 kts | 186° |
| 2026-04-23 18:49 | -2.48956 | -160.65849 | 35938 ft | 468 kts | 186° |
| 2026-04-23 18:50 | -2.53263 | -160.66043 | 35939 ft | 468 kts | 186° |
| 2026-04-23 18:50 | -2.61960 | -160.66435 | 35940 ft | 468 kts | 186° |
| 2026-04-23 18:51 | -2.68460 | -160.66728 | 35941 ft | 468 kts | 186° |
| 2026-04-23 18:51 | -2.74923 | -160.67019 | 35941 ft | 468 kts | 186° |
| 2026-04-23 18:52 | -2.81432 | -160.67311 | 35941 ft | 468 kts | 186° |
| 2026-04-23 18:52 | -2.86843 | -160.67555 | 35942 ft | 468 kts | 186° |
| 2026-04-23 18:53 | -2.93357 | -160.67848 | 35944 ft | 468 kts | 187° |
| 2026-04-23 18:53 | -2.99862 | -160.68141 | 35943 ft | 468 kts | 187° |
| 2026-04-23 18:54 | -3.06379 | -160.68435 | 35940 ft | 468 kts | 187° |
| 2026-04-23 18:54 | -3.12890 | -160.68727 | 35941 ft | 468 kts | 187° |
| 2026-04-23 18:55 | -3.19404 | -160.69019 | 35945 ft | 468 kts | 187° |
| 2026-04-23 18:55 | -3.25918 | -160.69314 | 35943 ft | 468 kts | 187° |
| 2026-04-23 18:56 | -3.32421 | -160.69607 | 35941 ft | 468 kts | 187° |
| 2026-04-23 18:56 | -3.38881 | -160.69897 | 35943 ft | 468 kts | 187° |
| 2026-04-23 18:57 | -3.45397 | -160.70191 | 35947 ft | 468 kts | 187° |
| 2026-04-23 18:57 | -3.51910 | -160.70484 | 35947 ft | 468 kts | 187° |
| 2026-04-23 18:58 | -3.58419 | -160.70777 | 35944 ft | 468 kts | 187° |
| 2026-04-23 18:58 | -3.64921 | -160.71070 | 35944 ft | 467 kts | 187° |
| 2026-04-23 18:59 | -3.71412 | -160.71363 | 35947 ft | 467 kts | 187° |
| 2026-04-23 18:59 | -3.77901 | -160.71655 | 35947 ft | 467 kts | 187° |
| 2026-04-23 19:00 | -3.84346 | -160.71946 | 35948 ft | 467 kts | 187° |
| 2026-04-23 19:00 | -3.90841 | -160.72239 | 35953 ft | 467 kts | 187° |
| 2026-04-23 19:01 | -3.97331 | -160.72531 | 35957 ft | 467 kts | 186° |
| 2026-04-23 19:01 | -4.03798 | -160.72823 | 35950 ft | 465 kts | 186° |
| 2026-04-23 19:02 | -4.10282 | -160.73116 | 35950 ft | 465 kts | 186° |
| 2026-04-23 19:02 | -4.16751 | -160.73408 | 35950 ft | 465 kts | 186° |
| 2026-04-23 19:03 | -4.23221 | -160.73698 | 35949 ft | 465 kts | 186° |
| 2026-04-23 19:03 | -4.29660 | -160.73990 | 35949 ft | 465 kts | 186° |
| 2026-04-23 19:04 | -4.36118 | -160.74281 | 35951 ft | 463 kts | 186° |
| 2026-04-23 19:04 | -4.42565 | -160.74571 | 35950 ft | 463 kts | 186° |
| 2026-04-23 19:05 | -4.49008 | -160.74864 | 35952 ft | 463 kts | 186° |
| 2026-04-23 19:05 | -4.55450 | -160.75153 | 35952 ft | 463 kts | 186° |
| 2026-04-23 19:06 | -4.61897 | -160.75444 | 35949 ft | 463 kts | 186° |
| 2026-04-23 19:06 | -4.68300 | -160.75734 | 35950 ft | 463 kts | 186° |
| 2026-04-23 19:07 | -4.74731 | -160.76024 | 35951 ft | 462 kts | 186° |
| 2026-04-23 19:07 | -4.81154 | -160.76314 | 35949 ft | 462 kts | 186° |
| 2026-04-23 19:08 | -4.87570 | -160.76603 | 35951 ft | 462 kts | 186° |
| 2026-04-23 19:08 | -4.94002 | -160.76893 | 35953 ft | 462 kts | 186° |
| 2026-04-23 19:09 | -5.00422 | -160.77182 | 35950 ft | 462 kts | 186° |
| 2026-04-23 19:09 | -5.06841 | -160.77473 | 35950 ft | 461 kts | 186° |
| 2026-04-23 19:10 | -5.13207 | -160.77763 | 35954 ft | 461 kts | 186° |
| 2026-04-23 19:10 | -5.19612 | -160.78054 | 35953 ft | 461 kts | 186° |
| 2026-04-23 19:11 | -5.26022 | -160.78346 | 35955 ft | 461 kts | 186° |
| 2026-04-23 19:11 | -5.32422 | -160.78633 | 35959 ft | 461 kts | 186° |
| 2026-04-23 19:12 | -5.37757 | -160.78874 | 35958 ft | 461 kts | 186° |
| 2026-04-23 19:12 | -5.45244 | -160.79213 | 35959 ft | 460 kts | 185° |
| 2026-04-23 19:13 | -5.51648 | -160.79503 | 35955 ft | 460 kts | 185° |
| 2026-04-23 19:13 | -5.58042 | -160.79794 | 35955 ft | 460 kts | 185° |
| 2026-04-23 19:14 | -5.64445 | -160.80085 | 35958 ft | 460 kts | 185° |
| 2026-04-23 19:14 | -5.70804 | -160.80373 | 35959 ft | 460 kts | 185° |
| 2026-04-23 19:15 | -5.77207 | -160.80663 | 35958 ft | 460 kts | 184° |
| 2026-04-23 19:15 | -5.83599 | -160.80952 | 35959 ft | 460 kts | 184° |
| 2026-04-23 19:16 | -5.89986 | -160.81243 | 35960 ft | 460 kts | 184° |
| 2026-04-23 19:16 | -5.96377 | -160.81532 | 35958 ft | 460 kts | 184° |
| 2026-04-23 19:17 | -6.05966 | -160.81969 | 35958 ft | 460 kts | 184° |
| 2026-04-23 19:17 | -6.12363 | -160.82259 | 35961 ft | 459 kts | 184° |
| 2026-04-23 19:18 | -6.18694 | -160.82546 | 35965 ft | 458 kts | 184° |
| 2026-04-23 19:18 | -6.25072 | -160.82837 | 35964 ft | 458 kts | 184° |
| 2026-04-23 19:19 | -6.34629 | -160.83270 | 35962 ft | 458 kts | 184° |
| 2026-04-23 19:20 | -6.44196 | -160.83702 | 35962 ft | 458 kts | 184° |
| 2026-04-23 19:20 | -6.50567 | -160.83992 | 35963 ft | 457 kts | 182° |
| 2026-04-23 19:21 | -6.60106 | -160.84428 | 35964 ft | 457 kts | 182° |
| 2026-04-23 19:22 | -6.66436 | -160.84713 | 35965 ft | 457 kts | 182° |
| 2026-04-23 19:22 | -6.75978 | -160.85148 | 35965 ft | 457 kts | 182° |
| 2026-04-23 19:23 | -6.82333 | -160.85437 | 35965 ft | 457 kts | 183° |
| 2026-04-23 19:24 | -6.91868 | -160.85871 | 35967 ft | 457 kts | 183° |
| 2026-04-23 19:24 | -7.01371 | -160.86305 | 35968 ft | 457 kts | 183° |
| 2026-04-23 19:25 | -7.14091 | -160.86884 | 35965 ft | 457 kts | 183° |
| 2026-04-23 19:26 | -7.23626 | -160.87319 | 35971 ft | 457 kts | 181° |
| 2026-04-23 19:27 | -7.39508 | -160.88043 | 35968 ft | 457 kts | 182° |
| 2026-04-23 19:28 | -7.52165 | -160.88622 | 35974 ft | 456 kts | 181° |
| 2026-04-23 19:29 | -7.61668 | -160.89057 | 35972 ft | 455 kts | 181° |
| 2026-04-23 19:30 | -7.71153 | -160.89489 | 35974 ft | 454 kts | 181° |
| 2026-04-23 19:31 | -7.80599 | -160.89922 | 35974 ft | 455 kts | 181° |
| 2026-04-23 19:31 | -7.86922 | -160.90209 | 35974 ft | 455 kts | 181° |
| 2026-04-23 19:32 | -7.93241 | -160.90496 | 35977 ft | 454 kts | 181° |
| 2026-04-23 19:32 | -7.99557 | -160.90785 | 35975 ft | 454 kts | 181° |
| 2026-04-23 19:33 | -8.05861 | -160.91074 | 35977 ft | 454 kts | 181° |
| 2026-04-23 19:33 | -8.15330 | -160.91510 | 35977 ft | 454 kts | 181° |
| 2026-04-23 19:34 | -8.21606 | -160.91799 | 35980 ft | 454 kts | 181° |
| 2026-04-23 19:35 | -8.31049 | -160.92232 | 35976 ft | 451 kts | 180° |
| 2026-04-23 19:35 | -8.37330 | -160.92518 | 35976 ft | 451 kts | 180° |
| 2026-04-23 19:36 | -8.43605 | -160.92807 | 35977 ft | 451 kts | 180° |
| 2026-04-23 19:36 | -8.49844 | -160.93094 | 35976 ft | 451 kts | 180° |
| 2026-04-23 19:37 | -8.56117 | -160.93381 | 35979 ft | 451 kts | 180° |
| 2026-04-23 19:37 | -8.62392 | -160.93669 | 35980 ft | 451 kts | 180° |
| 2026-04-23 19:38 | -8.68669 | -160.93958 | 35982 ft | 451 kts | 180° |
| 2026-04-23 19:38 | -8.74941 | -160.94245 | 35982 ft | 451 kts | 180° |
| 2026-04-23 19:39 | -8.80154 | -160.94484 | 35984 ft | 451 kts | 180° |
| 2026-04-23 19:39 | -8.86420 | -160.94772 | 35986 ft | 451 kts | 180° |
| 2026-04-23 19:40 | -8.92718 | -160.95064 | 35984 ft | 451 kts | 180° |
| 2026-04-23 19:40 | -8.98996 | -160.95352 | 35984 ft | 452 kts | 180° |
| 2026-04-23 19:41 | -9.05284 | -160.95641 | 35984 ft | 452 kts | 180° |
| 2026-04-23 19:41 | -9.11526 | -160.95930 | 35986 ft | 452 kts | 180° |
| 2026-04-23 19:42 | -9.17808 | -160.96217 | 35991 ft | 452 kts | 180° |
| 2026-04-23 19:42 | -9.24090 | -160.96507 | 35990 ft | 452 kts | 180° |
| 2026-04-23 19:43 | -9.30378 | -160.96795 | 35986 ft | 452 kts | 180° |
| 2026-04-23 19:43 | -9.36633 | -160.97083 | 35991 ft | 453 kts | 180° |
| 2026-04-23 19:44 | -9.42924 | -160.97374 | 35990 ft | 453 kts | 180° |
| 2026-04-23 19:44 | -9.49225 | -160.97666 | 35990 ft | 453 kts | 179° |
| 2026-04-23 19:45 | -9.55537 | -160.97956 | 35991 ft | 453 kts | 180° |
| 2026-04-23 19:45 | -9.61826 | -160.98247 | 35994 ft | 453 kts | 180° |
| 2026-04-23 19:46 | -9.68079 | -160.98535 | 35991 ft | 453 kts | 179° |
| 2026-04-23 19:46 | -9.74390 | -160.98825 | 35994 ft | 453 kts | 179° |
| 2026-04-23 19:47 | -9.80684 | -160.99118 | 35994 ft | 453 kts | 179° |
| 2026-04-23 19:47 | -9.86983 | -160.99410 | 35993 ft | 453 kts | 179° |
| 2026-04-23 19:48 | -9.93281 | -160.99700 | 35994 ft | 453 kts | 179° |
| 2026-04-23 19:48 | -9.99575 | -160.99985 | 35994 ft | 452 kts | 178° |
| 2026-04-23 19:49 | -10.05878 | -161.00026 | 35993 ft | 452 kts | 176° |
| 2026-04-23 19:49 | -10.12133 | -161.00030 | 35984 ft | 452 kts | 176° |
| 2026-04-23 19:50 | -10.18432 | -161.00041 | 35979 ft | 452 kts | 176° |
| 2026-04-23 19:50 | -10.24730 | -161.00049 | 35970 ft | 452 kts | 176° |
| 2026-04-23 19:51 | -10.31028 | -161.00057 | 35964 ft | 452 kts | 176° |
| 2026-04-23 19:51 | -10.37328 | -161.00065 | 35965 ft | 452 kts | 176° |
| 2026-04-23 19:52 | -10.43630 | -161.00074 | 35965 ft | 452 kts | 176° |
| 2026-04-23 19:52 | -10.49899 | -161.00081 | 35968 ft | 452 kts | 176° |
| 2026-04-23 19:53 | -10.56191 | -161.00090 | 35993 ft | 452 kts | 176° |
| 2026-04-23 19:53 | -10.62498 | -161.00100 | 35995 ft | 452 kts | 176° |
| 2026-04-23 19:54 | -10.68798 | -161.00108 | 35995 ft | 452 kts | 176° |
| 2026-04-23 19:54 | -10.75095 | -161.00116 | 35995 ft | 452 kts | 176° |
| 2026-04-23 19:55 | -10.81382 | -161.00124 | 36000 ft | 451 kts | 176° |
| 2026-04-23 19:55 | -10.87666 | -161.00132 | 36000 ft | 451 kts | 176° |
| 2026-04-23 19:56 | -10.93924 | -161.00138 | 35999 ft | 451 kts | 176° |
| 2026-04-23 19:56 | -11.00208 | -161.00148 | 36000 ft | 451 kts | 176° |
| 2026-04-23 19:57 | -11.06492 | -161.00157 | 35997 ft | 451 kts | 177° |
| 2026-04-23 19:57 | -11.12784 | -161.00167 | 35999 ft | 451 kts | 176° |
| 2026-04-23 19:58 | -11.19059 | -161.00174 | 35999 ft | 451 kts | 177° |
| 2026-04-23 19:58 | -11.25289 | -161.00181 | 36000 ft | 451 kts | 177° |
| 2026-04-23 19:59 | -11.31558 | -161.00189 | 36000 ft | 451 kts | 177° |
| 2026-04-23 19:59 | -11.37831 | -161.00198 | 36000 ft | 451 kts | 177° |
| 2026-04-23 20:00 | -11.44096 | -161.00206 | 35998 ft | 449 kts | 177° |
| 2026-04-23 20:00 | -11.50354 | -161.00215 | 36002 ft | 449 kts | 177° |
| 2026-04-23 20:01 | -11.56597 | -161.00220 | 36002 ft | 449 kts | 177° |
| 2026-04-23 20:01 | -11.62837 | -161.00230 | 36000 ft | 449 kts | 177° |
| 2026-04-23 20:02 | -11.69080 | -161.00239 | 36003 ft | 449 kts | 177° |
| 2026-04-23 20:02 | -11.75296 | -161.00247 | 35999 ft | 449 kts | 177° |
| 2026-04-23 20:03 | -11.81574 | -161.00256 | 36002 ft | 448 kts | 178° |
| 2026-04-23 20:03 | -11.87766 | -161.00264 | 36003 ft | 448 kts | 178° |
| 2026-04-23 20:04 | -11.94001 | -161.00273 | 36002 ft | 448 kts | 178° |
| 2026-04-23 20:04 | -12.00234 | -161.00281 | 36003 ft | 448 kts | 178° |
| 2026-04-23 20:05 | -12.06466 | -161.00289 | 36003 ft | 448 kts | 178° |
| 2026-04-23 20:05 | -12.12692 | -161.00297 | 36003 ft | 446 kts | 178° |
| 2026-04-23 20:06 | -12.18900 | -161.00306 | 36003 ft | 446 kts | 178° |
| 2026-04-23 20:06 | -12.25101 | -161.00314 | 36002 ft | 446 kts | 178° |
| 2026-04-23 20:07 | -12.31305 | -161.00322 | 36002 ft | 446 kts | 178° |
| 2026-04-23 20:07 | -12.37477 | -161.00331 | 36004 ft | 446 kts | 178° |
| 2026-04-23 20:08 | -12.43677 | -161.00340 | 36004 ft | 446 kts | 178° |
| 2026-04-23 20:08 | -12.49871 | -161.00348 | 36003 ft | 444 kts | 178° |
| 2026-04-23 20:09 | -12.56043 | -161.00356 | 36002 ft | 444 kts | 178° |
| 2026-04-23 20:09 | -12.62216 | -161.00364 | 36003 ft | 443 kts | 178° |
| 2026-04-23 20:10 | -12.67351 | -161.00371 | 36004 ft | 443 kts | 178° |
| 2026-04-23 20:10 | -12.74567 | -161.00381 | 36005 ft | 443 kts | 178° |
| 2026-04-23 20:11 | -12.80738 | -161.00389 | 36005 ft | 443 kts | 179° |
| 2026-04-23 20:11 | -12.86862 | -161.00397 | 36007 ft | 442 kts | 179° |
| 2026-04-23 20:12 | -12.93019 | -161.00404 | 36008 ft | 442 kts | 179° |
| 2026-04-23 20:12 | -12.99179 | -161.00412 | 36009 ft | 442 kts | 179° |
| 2026-04-23 20:13 | -13.05342 | -161.00421 | 36009 ft | 442 kts | 179° |
| 2026-04-23 20:13 | -13.11504 | -161.00429 | 36010 ft | 442 kts | 179° |
| 2026-04-23 20:14 | -13.17657 | -161.00437 | 36009 ft | 442 kts | 179° |
| 2026-04-23 20:14 | -13.23810 | -161.00446 | 36009 ft | 442 kts | 179° |
| 2026-04-23 20:15 | -13.29922 | -161.00454 | 36012 ft | 442 kts | 179° |
| 2026-04-23 20:15 | -13.36073 | -161.00463 | 36015 ft | 442 kts | 179° |
| 2026-04-23 20:16 | -13.42229 | -161.00470 | 36015 ft | 442 kts | 179° |
| 2026-04-23 20:16 | -13.48380 | -161.00479 | 36015 ft | 442 kts | 179° |
| 2026-04-23 20:17 | -13.54530 | -161.00488 | 36013 ft | 442 kts | 179° |
| 2026-04-23 20:17 | -13.60679 | -161.00497 | 36014 ft | 442 kts | 179° |
| 2026-04-23 20:18 | -13.66830 | -161.00503 | 36017 ft | 442 kts | 179° |
| 2026-04-23 20:18 | -13.72936 | -161.00513 | 36018 ft | 442 kts | 179° |
| 2026-04-23 20:19 | -13.79090 | -161.00521 | 36018 ft | 442 kts | 179° |
| 2026-04-23 20:19 | -13.85242 | -161.00530 | 36018 ft | 441 kts | 179° |
| 2026-04-23 20:20 | -13.91388 | -161.00538 | 36021 ft | 441 kts | 179° |
| 2026-04-23 20:20 | -13.97531 | -161.00548 | 36021 ft | 441 kts | 179° |
| 2026-04-23 20:21 | -14.03680 | -161.00555 | 36022 ft | 441 kts | 179° |
| 2026-04-23 20:21 | -14.08781 | -161.00564 | 36024 ft | 441 kts | 179° |
| 2026-04-23 20:22 | -14.15976 | -161.00573 | 36023 ft | 442 kts | 179° |
| 2026-04-23 20:22 | -14.22118 | -161.00581 | 36024 ft | 441 kts | 179° |
| 2026-04-23 20:23 | -14.28226 | -161.00589 | 36023 ft | 441 kts | 179° |
| 2026-04-23 20:23 | -14.34378 | -161.00599 | 36024 ft | 441 kts | 179° |
| 2026-04-23 20:24 | -14.40519 | -161.00606 | 36024 ft | 442 kts | 179° |
| 2026-04-23 20:24 | -14.46672 | -161.00614 | 36021 ft | 442 kts | 179° |
| 2026-04-23 20:25 | -14.51781 | -161.00620 | 36025 ft | 442 kts | 179° |
| 2026-04-23 20:25 | -14.57928 | -161.00627 | 36027 ft | 441 kts | 179° |
| 2026-04-23 20:26 | -14.64077 | -161.00637 | 36023 ft | 442 kts | 179° |
| 2026-04-23 20:26 | -14.70230 | -161.00643 | 36029 ft | 442 kts | 179° |
| 2026-04-23 20:27 | -14.76375 | -161.00654 | 36030 ft | 442 kts | 179° |
| 2026-04-23 20:27 | -14.82520 | -161.00660 | 36030 ft | 441 kts | 179° |
| 2026-04-23 20:28 | -14.88670 | -161.00671 | 36032 ft | 440 kts | 179° |
| 2026-04-23 20:28 | -14.94758 | -161.00677 | 36029 ft | 435 kts | 179° |
| 2026-04-23 20:29 | -15.00733 | -161.00482 | 36029 ft | 432 kts | 171° |
| 2026-04-23 20:29 | -15.06654 | -160.99193 | 36037 ft | 438 kts | 167° |
| 2026-04-23 20:30 | -15.12629 | -160.97778 | 36041 ft | 441 kts | 167° |
| 2026-04-23 20:30 | -15.21605 | -160.95698 | 36038 ft | 441 kts | 167° |
| 2026-04-23 20:31 | -15.27573 | -160.94320 | 36038 ft | 438 kts | 167° |
| 2026-04-23 20:31 | -15.33489 | -160.92963 | 36035 ft | 433 kts | 167° |
| 2026-04-23 20:32 | -15.39381 | -160.91604 | 36041 ft | 436 kts | 167° |
| 2026-04-23 20:32 | -15.45350 | -160.90219 | 36043 ft | 441 kts | 167° |
| 2026-04-23 20:33 | -15.51304 | -160.88835 | 36042 ft | 441 kts | 167° |
| 2026-04-23 20:33 | -15.57289 | -160.87447 | 36042 ft | 441 kts | 167° |
| 2026-04-23 20:34 | -15.63265 | -160.86060 | 36041 ft | 438 kts | 167° |
| 2026-04-23 20:34 | -15.69182 | -160.84692 | 36038 ft | 433 kts | 167° |
| 2026-04-23 20:35 | -15.75061 | -160.83324 | 36045 ft | 435 kts | 167° |
| 2026-04-23 20:35 | -15.81011 | -160.81939 | 36049 ft | 441 kts | 167° |
| 2026-04-23 20:36 | -15.86998 | -160.80548 | 36044 ft | 440 kts | 167° |
| 2026-04-23 20:36 | -15.92950 | -160.79169 | 36047 ft | 440 kts | 167° |
| 2026-04-23 20:37 | -15.98926 | -160.77788 | 36046 ft | 438 kts | 167° |
| 2026-04-23 20:37 | -16.04845 | -160.76409 | 36045 ft | 433 kts | 167° |
| 2026-04-23 20:38 | -16.10715 | -160.75043 | 36049 ft | 434 kts | 167° |
| 2026-04-23 20:38 | -16.16656 | -160.73659 | 36055 ft | 440 kts | 167° |
| 2026-04-23 20:39 | -16.22594 | -160.72267 | 36050 ft | 440 kts | 167° |
| 2026-04-23 20:39 | -16.28580 | -160.70870 | 36050 ft | 440 kts | 167° |
| 2026-04-23 20:40 | -16.34552 | -160.69473 | 36050 ft | 438 kts | 167° |
| 2026-04-23 20:40 | -16.40478 | -160.68089 | 36048 ft | 434 kts | 167° |
| 2026-04-23 20:41 | -16.46345 | -160.66718 | 36051 ft | 433 kts | 167° |
| 2026-04-23 20:41 | -16.52268 | -160.65333 | 36058 ft | 439 kts | 167° |
| 2026-04-23 20:42 | -16.58201 | -160.63943 | 36053 ft | 440 kts | 167° |
| 2026-04-23 20:42 | -16.64170 | -160.62546 | 36062 ft | 440 kts | 167° |
| 2026-04-23 20:43 | -16.70142 | -160.61146 | 36062 ft | 439 kts | 167° |
| 2026-04-23 20:43 | -16.76073 | -160.59754 | 36052 ft | 434 kts | 167° |
| 2026-04-23 20:44 | -16.81947 | -160.58375 | 36056 ft | 431 kts | 168° |
| 2026-04-23 20:44 | -16.87847 | -160.56990 | 36064 ft | 437 kts | 168° |
| 2026-04-23 20:45 | -16.93772 | -160.55597 | 36060 ft | 440 kts | 168° |
| 2026-04-23 20:45 | -16.99755 | -160.54189 | 36058 ft | 440 kts | 168° |
| 2026-04-23 20:46 | -17.05732 | -160.52782 | 36060 ft | 440 kts | 168° |
| 2026-04-23 20:46 | -17.11677 | -160.51383 | 36059 ft | 435 kts | 168° |
| 2026-04-23 20:47 | -17.17559 | -160.49998 | 36058 ft | 431 kts | 168° |
| 2026-04-23 20:47 | -17.23437 | -160.48613 | 36066 ft | 435 kts | 168° |
| 2026-04-23 20:48 | -17.29349 | -160.47217 | 36064 ft | 439 kts | 168° |
| 2026-04-23 20:48 | -17.35319 | -160.45806 | 36061 ft | 440 kts | 168° |
| 2026-04-23 20:49 | -17.41288 | -160.44399 | 36062 ft | 440 kts | 168° |
| 2026-04-23 20:49 | -17.47254 | -160.42989 | 36061 ft | 437 kts | 168° |
| 2026-04-23 20:50 | -17.53159 | -160.41590 | 36059 ft | 432 kts | 168° |
| 2026-04-23 20:50 | -17.58979 | -160.40213 | 36067 ft | 434 kts | 168° |
| 2026-04-23 20:51 | -17.64918 | -160.38806 | 36069 ft | 440 kts | 168° |
| 2026-04-23 20:51 | -17.70887 | -160.37393 | 36065 ft | 440 kts | 168° |
| 2026-04-23 20:52 | -17.76870 | -160.35974 | 36069 ft | 440 kts | 168° |
| 2026-04-23 20:52 | -17.82849 | -160.34555 | 36067 ft | 439 kts | 168° |
| 2026-04-23 20:53 | -17.88767 | -160.33147 | 36066 ft | 434 kts | 168° |
| 2026-04-23 20:53 | -17.94609 | -160.31758 | 36067 ft | 434 kts | 168° |
| 2026-04-23 20:54 | -18.00538 | -160.30350 | 36071 ft | 440 kts | 168° |
| 2026-04-23 20:54 | -18.06523 | -160.28926 | 36067 ft | 441 kts | 168° |
| 2026-04-23 20:55 | -18.12515 | -160.27500 | 36068 ft | 442 kts | 168° |
| 2026-04-23 20:55 | -18.18507 | -160.26070 | 36068 ft | 441 kts | 168° |
| 2026-04-23 20:56 | -18.24457 | -160.24649 | 36066 ft | 436 kts | 168° |
| 2026-04-23 20:56 | -18.30346 | -160.23245 | 36065 ft | 432 kts | 168° |
| 2026-04-23 20:57 | -18.36215 | -160.21843 | 36075 ft | 438 kts | 168° |
| 2026-04-23 20:57 | -18.42195 | -160.20413 | 36072 ft | 441 kts | 168° |
| 2026-04-23 20:58 | -18.48184 | -160.18981 | 36073 ft | 441 kts | 168° |
| 2026-04-23 20:58 | -18.54169 | -160.17548 | 36074 ft | 441 kts | 168° |
| 2026-04-23 20:59 | -18.60138 | -160.16119 | 36074 ft | 437 kts | 168° |
| 2026-04-23 20:59 | -18.66042 | -160.14703 | 36072 ft | 433 kts | 168° |
| 2026-04-23 21:00 | -18.71919 | -160.13293 | 36073 ft | 436 kts | 168° |
| 2026-04-23 21:00 | -18.77876 | -160.11865 | 36011 ft | 441 kts | 168° |
| 2026-04-23 21:01 | -18.83876 | -160.10421 | 36054 ft | 442 kts | 168° |
| 2026-04-23 21:01 | -18.89833 | -160.08990 | 36069 ft | 442 kts | 168° |
| 2026-04-23 21:02 | -18.95823 | -160.07549 | 36071 ft | 439 kts | 168° |
| 2026-04-23 21:02 | -19.01755 | -160.06121 | 36074 ft | 435 kts | 168° |
| 2026-04-23 21:03 | -19.07654 | -160.04700 | 36078 ft | 436 kts | 169° |
| 2026-04-23 21:03 | -19.13624 | -160.03262 | 36080 ft | 442 kts | 169° |
| 2026-04-23 21:04 | -19.19586 | -160.01823 | 36074 ft | 442 kts | 169° |
| 2026-04-23 21:04 | -19.25597 | -160.00370 | 36074 ft | 442 kts | 169° |
| 2026-04-23 21:05 | -19.31599 | -159.98920 | 36075 ft | 441 kts | 169° |
| 2026-04-23 21:05 | -19.37513 | -159.97489 | 36073 ft | 436 kts | 169° |
| 2026-04-23 21:06 | -19.43405 | -159.96065 | 36076 ft | 432 kts | 169° |
| 2026-04-23 21:06 | -19.49285 | -159.94642 | 35796 ft | 434 kts | 169° |
| 2026-04-23 21:07 | -19.52269 | -159.94198 | 35301 ft | 430 kts | 180° |
| 2026-04-23 21:07 | -19.55240 | -159.94244 | 34760 ft | 426 kts | 183° |
| 2026-04-23 21:07 | -19.58197 | -159.94369 | 34185 ft | 423 kts | 184° |
| 2026-04-23 21:07 | -19.61120 | -159.94485 | 33581 ft | 420 kts | 183° |
| 2026-04-23 21:08 | -19.64042 | -159.94582 | 33000 ft | 418 kts | 183° |
| 2026-04-23 21:08 | -19.66938 | -159.94667 | 32454 ft | 415 kts | 183° |
| 2026-04-23 21:08 | -19.69821 | -159.94748 | 31910 ft | 413 kts | 183° |
| 2026-04-23 21:08 | -19.72688 | -159.94826 | 31359 ft | 411 kts | 183° |
| 2026-04-23 21:09 | -19.75543 | -159.94903 | 30836 ft | 409 kts | 183° |
| 2026-04-23 21:09 | -19.78384 | -159.94980 | 30320 ft | 407 kts | 183° |
| 2026-04-23 21:09 | -19.81210 | -159.95057 | 29727 ft | 406 kts | 183° |
| 2026-04-23 21:09 | -19.84035 | -159.95135 | 29139 ft | 404 kts | 183° |
| 2026-04-23 21:10 | -19.86842 | -159.95211 | 28577 ft | 402 kts | 183° |
| 2026-04-23 21:10 | -19.89630 | -159.95287 | 28044 ft | 399 kts | 183° |
| 2026-04-23 21:10 | -19.92402 | -159.95364 | 27530 ft | 396 kts | 183° |
| 2026-04-23 21:10 | -19.95150 | -159.95439 | 27012 ft | 394 kts | 183° |
| 2026-04-23 21:11 | -19.97893 | -159.95515 | 26481 ft | 393 kts | 183° |
| 2026-04-23 21:11 | -19.99699 | -159.95564 | 26141 ft | 392 kts | 183° |
| 2026-04-23 21:11 | -20.02416 | -159.95638 | 25641 ft | 390 kts | 183° |
| 2026-04-23 21:11 | -20.05130 | -159.95712 | 25142 ft | 388 kts | 183° |
| 2026-04-23 21:12 | -20.08695 | -159.95809 | 24454 ft | 386 kts | 183° |
| 2026-04-23 21:12 | -20.10509 | -159.95859 | 24114 ft | 384 kts | 183° |
| 2026-04-23 21:12 | -20.13173 | -159.95931 | 23597 ft | 382 kts | 183° |
| 2026-04-23 21:12 | -20.15823 | -159.96004 | 23017 ft | 379 kts | 183° |
| 2026-04-23 21:13 | -20.18444 | -159.96076 | 22485 ft | 375 kts | 183° |
| 2026-04-23 21:13 | -20.21042 | -159.96147 | 21936 ft | 372 kts | 183° |
| 2026-04-23 21:13 | -20.23622 | -159.96218 | 21420 ft | 369 kts | 183° |
| 2026-04-23 21:13 | -20.26144 | -159.96288 | 20927 ft | 365 kts | 182° |
| 2026-04-23 21:14 | -20.28668 | -159.96357 | 20462 ft | 361 kts | 182° |
| 2026-04-23 21:14 | -20.31170 | -159.96425 | 19995 ft | 357 kts | 182° |
| 2026-04-23 21:14 | -20.33642 | -159.96493 | 19545 ft | 353 kts | 182° |
| 2026-04-23 21:14 | -20.36084 | -159.96560 | 19119 ft | 349 kts | 182° |
| 2026-04-23 21:15 | -20.38495 | -159.96627 | 18700 ft | 345 kts | 182° |
| 2026-04-23 21:15 | -20.40895 | -159.96693 | 18269 ft | 344 kts | 182° |
| 2026-04-23 21:15 | -20.43288 | -159.96758 | 17802 ft | 343 kts | 182° |
| 2026-04-23 21:15 | -20.45669 | -159.96824 | 17356 ft | 342 kts | 182° |
| 2026-04-23 21:16 | -20.48049 | -159.96889 | 16933 ft | 341 kts | 182° |
| 2026-04-23 21:16 | -20.50424 | -159.96954 | 16518 ft | 340 kts | 182° |
| 2026-04-23 21:16 | -20.52758 | -159.97019 | 16115 ft | 340 kts | 182° |
| 2026-04-23 21:16 | -20.55126 | -159.97084 | 15713 ft | 340 kts | 182° |
| 2026-04-23 21:17 | -20.57488 | -159.97149 | 15316 ft | 339 kts | 182° |
| 2026-04-23 21:17 | -20.59848 | -159.97214 | 14945 ft | 339 kts | 182° |
| 2026-04-23 21:17 | -20.62207 | -159.97279 | 14536 ft | 339 kts | 182° |
| 2026-04-23 21:17 | -20.64562 | -159.97344 | 14108 ft | 337 kts | 182° |
| 2026-04-23 21:18 | -20.66894 | -159.97409 | 13650 ft | 332 kts | 182° |
| 2026-04-23 21:18 | -20.69196 | -159.97472 | 13207 ft | 327 kts | 182° |
| 2026-04-23 21:18 | -20.71450 | -159.97534 | 12802 ft | 321 kts | 182° |
| 2026-04-23 21:18 | -20.73645 | -159.97757 | 12414 ft | 314 kts | 190° |
| 2026-04-23 21:19 | -20.75446 | -159.98151 | 12076 ft | 310 kts | 192° |
| 2026-04-23 21:19 | -20.77530 | -159.98642 | 11675 ft | 305 kts | 192° |
| 2026-04-23 21:19 | -20.79591 | -159.99129 | 11288 ft | 303 kts | 192° |
| 2026-04-23 21:19 | -20.81652 | -159.99610 | 10925 ft | 303 kts | 192° |
| 2026-04-23 21:20 | -20.82006 | -159.99692 | 10865 ft | 303 kts | 192° |
| 2026-04-23 21:20 | -20.84046 | -160.00165 | 10571 ft | 296 kts | 192° |
| 2026-04-23 21:20 | -20.86021 | -160.00623 | 10353 ft | 285 kts | 192° |
| 2026-04-23 21:21 | -20.87934 | -160.01066 | 10125 ft | 279 kts | 192° |
| 2026-04-23 21:21 | -20.89830 | -160.01505 | 9783 ft | 278 kts | 191° |
| 2026-04-23 21:21 | -20.91723 | -160.01942 | 9389 ft | 279 kts | 191° |
| 2026-04-23 21:21 | -20.93623 | -160.02381 | 9007 ft | 280 kts | 191° |
| 2026-04-23 21:22 | -20.95533 | -160.02823 | 8632 ft | 281 kts | 191° |
| 2026-04-23 21:22 | -20.97439 | -160.03264 | 8262 ft | 280 kts | 191° |
| 2026-04-23 21:22 | -20.99333 | -160.03702 | 7905 ft | 276 kts | 191° |
| 2026-04-23 21:22 | -21.01200 | -160.04134 | 7556 ft | 275 kts | 191° |
| 2026-04-23 21:23 | -21.03074 | -160.04569 | 7202 ft | 275 kts | 191° |
| 2026-04-23 21:23 | -21.04951 | -160.05003 | 6843 ft | 277 kts | 191° |
| 2026-04-23 21:23 | -21.06814 | -160.05435 | 6480 ft | 275 kts | 190° |
| 2026-04-23 21:23 | -21.08674 | -160.05866 | 6109 ft | 272 kts | 190° |
| 2026-04-23 21:24 | -21.10521 | -160.06288 | 5892 ft | 271 kts | 188° |
| 2026-04-23 21:24 | -21.12382 | -160.06455 | 5748 ft | 264 kts | 179° |
| 2026-04-23 21:24 | -21.14174 | -160.06457 | 5613 ft | 251 kts | 178° |
| 2026-04-23 21:24 | -21.15880 | -160.06451 | 5476 ft | 238 kts | 178° |
| 2026-04-23 21:25 | -21.17491 | -160.06409 | 5314 ft | 224 kts | 171° |
| 2026-04-23 21:25 | -21.18949 | -160.06015 | 5083 ft | 209 kts | 151° |
| 2026-04-23 21:25 | -21.19973 | -160.05004 | 4564 ft | 200 kts | 119° |
| 2026-04-23 21:25 | -21.20326 | -160.03566 | 4098 ft | 206 kts | 94° |
| 2026-04-23 21:26 | -21.20307 | -160.02027 | 3811 ft | 205 kts | 90° |
| 2026-04-23 21:26 | -21.20286 | -160.00494 | 3545 ft | 208 kts | 90° |
| 2026-04-23 21:26 | -21.20285 | -159.98974 | 3303 ft | 206 kts | 90° |
| 2026-04-23 21:26 | -21.20283 | -159.97452 | 3087 ft | 201 kts | 90° |
| 2026-04-23 21:27 | -21.20283 | -159.95976 | 2712 ft | 194 kts | 91° |
| 2026-04-23 21:27 | -21.20283 | -159.94577 | 2273 ft | 183 kts | 91° |
| 2026-04-23 21:27 | -21.20282 | -159.93299 | 2094 ft | 158 kts | 91° |
| 2026-04-23 21:27 | -21.20275 | -159.92209 | 2014 ft | 140 kts | 91° |
| 2026-04-23 21:28 | -21.20280 | -159.91182 | 1955 ft | 136 kts | 92° |
| 2026-04-23 21:28 | -21.20279 | -159.90163 | 1648 ft | 136 kts | 92° |
| 2026-04-23 21:28 | -21.20271 | -159.89160 | 1443 ft | 135 kts | 91° |
| 2026-04-23 21:28 | -21.20261 | -159.88153 | 1346 ft | 136 kts | 91° |
| 2026-04-23 21:29 | -21.20241 | -159.87141 | 1060 ft | 135 kts | 90° |
| 2026-04-23 21:29 | -21.20242 | -159.86130 | 889 ft | 135 kts | 93° |
| 2026-04-23 21:29 | -21.20243 | -159.85115 | 730 ft | 137 kts | 92° |
| 2026-04-23 21:29 | -21.20239 | -159.84117 | 588 ft | 134 kts | 94° |
| 2026-04-23 21:30 | -21.20250 | -159.83111 | 351 ft | 135 kts | 94° |
| 2026-04-23 21:30 | -21.20251 | -159.82107 | 177 ft | 133 kts | 94° |
| 2026-04-23 21:30 | -21.20257 | -159.81115 | 49 ft | 129 kts | 92° |
| 2026-04-23 21:30 | -21.20257 | -159.80228 | 15 ft | 99 kts | 90° |
| 2026-04-23 21:31 | -21.20258 | -159.79720 | 16 ft | 48 kts | 89° |
| 2026-04-23 21:31 | -21.20272 | -159.79540 | 18 ft | 16 kts | 126° |
| 2026-04-23 21:31 | -21.20249 | -159.79530 | 16 ft | 17 kts | 264° |
| 2026-04-23 21:31 | -21.20255 | -159.79670 | 16 ft | 20 kts | 267° |
| 2026-04-23 21:32 | -21.20247 | -159.79822 | 20 ft | 22 kts | 314° |
| 2026-04-23 21:32 | -21.20133 | -159.79848 | 16 ft | 16 kts | 317° |
| 2026-04-23 21:32 | -21.20093 | -159.79888 | 16 ft | 3 kts | 326° |
| 2026-04-23 21:32 | -21.20075 | -159.79884 | 16 ft | 3 kts | 42° |
| 2026-04-23 21:33 | -21.20071 | -159.79872 | 16 ft | 0 kts | 84° |